sensor_id;sensor_type;location;lat;lon;timestamp;P1;durP1;ratioP1;P2;durP2;ratioP2
84849;SDS011;75096;49.576;11.024;2024-02-15T00:00:30;8.73;;;4.45;;
84849;SDS011;75096;49.576;11.024;2024-02-15T00:01:31;8.10;;;4.97;;
84849;SDS011;75096;49.576;11.024;2024-02-15T00:02:33;6.53;;;4.05;;
84849;SDS011;75096;49.576;11.024;2024-02-15T00:03:35;7.90;;;4.25;;
84849;SDS011;75096;49.576;11.024;2024-02-15T00:04:37;8.73;;;5.55;;
84849;SDS011;75096;49.576;11.024;2024-02-15T00:05:39;6.47;;;4.13;;
84849;SDS011;75096;49.576;11.024;2024-02-15T00:06:41;8.10;;;4.95;;
84849;SDS011;75096;49.576;11.024;2024-02-15T00:07:42;7.97;;;4.53;;
84849;SDS011;75096;49.576;11.024;2024-02-15T00:08:45;7.78;;;4.35;;
84849;SDS011;75096;49.576;11.024;2024-02-15T00:09:47;8.65;;;5.30;;
84849;SDS011;75096;49.576;11.024;2024-02-15T00:10:49;8.68;;;4.70;;
84849;SDS011;75096;49.576;11.024;2024-02-15T00:11:51;6.60;;;4.00;;
84849;SDS011;75096;49.576;11.024;2024-02-15T00:12:55;9.35;;;5.32;;
84849;SDS011;75096;49.576;11.024;2024-02-15T00:13:56;7.95;;;4.60;;
84849;SDS011;75096;49.576;11.024;2024-02-15T00:14:58;9.50;;;5.05;;
84849;SDS011;75096;49.576;11.024;2024-02-15T00:16:00;6.68;;;4.40;;
84849;SDS011;75096;49.576;11.024;2024-02-15T00:17:02;7.10;;;5.22;;
84849;SDS011;75096;49.576;11.024;2024-02-15T00:18:04;7.13;;;4.43;;
84849;SDS011;75096;49.576;11.024;2024-02-15T00:19:06;7.90;;;4.20;;
84849;SDS011;75096;49.576;11.024;2024-02-15T00:20:08;7.35;;;4.63;;
84849;SDS011;75096;49.576;11.024;2024-02-15T00:21:11;8.05;;;4.55;;
84849;SDS011;75096;49.576;11.024;2024-02-15T00:22:13;6.85;;;4.35;;
84849;SDS011;75096;49.576;11.024;2024-02-15T00:23:14;7.85;;;4.47;;
84849;SDS011;75096;49.576;11.024;2024-02-15T00:24:18;8.38;;;4.10;;
84849;SDS011;75096;49.576;11.024;2024-02-15T00:25:19;6.88;;;3.60;;
84849;SDS011;75096;49.576;11.024;2024-02-15T00:26:22;6.65;;;4.22;;
84849;SDS011;75096;49.576;11.024;2024-02-15T00:27:24;7.55;;;4.55;;
84849;SDS011;75096;49.576;11.024;2024-02-15T00:28:25;7.25;;;4.15;;
84849;SDS011;75096;49.576;11.024;2024-02-15T00:29:28;7.13;;;4.43;;
84849;SDS011;75096;49.576;11.024;2024-02-15T00:30:30;10.20;;;4.50;;
84849;SDS011;75096;49.576;11.024;2024-02-15T00:31:33;7.85;;;3.95;;
84849;SDS011;75096;49.576;11.024;2024-02-15T00:32:34;7.75;;;4.47;;
84849;SDS011;75096;49.576;11.024;2024-02-15T00:33:38;7.65;;;4.50;;
84849;SDS011;75096;49.576;11.024;2024-02-15T00:34:40;7.85;;;4.63;;
84849;SDS011;75096;49.576;11.024;2024-02-15T00:35:43;8.18;;;4.45;;
84849;SDS011;75096;49.576;11.024;2024-02-15T00:36:45;6.78;;;4.40;;
84849;SDS011;75096;49.576;11.024;2024-02-15T00:37:47;8.55;;;4.32;;
84849;SDS011;75096;49.576;11.024;2024-02-15T00:38:48;7.38;;;4.97;;
84849;SDS011;75096;49.576;11.024;2024-02-15T00:39:50;7.57;;;4.70;;
84849;SDS011;75096;49.576;11.024;2024-02-15T00:40:52;8.23;;;4.88;;
84849;SDS011;75096;49.576;11.024;2024-02-15T00:41:54;8.02;;;4.55;;
84849;SDS011;75096;49.576;11.024;2024-02-15T00:42:57;7.68;;;4.55;;
84849;SDS011;75096;49.576;11.024;2024-02-15T00:43:59;9.73;;;4.85;;
84849;SDS011;75096;49.576;11.024;2024-02-15T00:45:01;6.65;;;4.68;;
84849;SDS011;75096;49.576;11.024;2024-02-15T00:46:03;7.68;;;3.55;;
84849;SDS011;75096;49.576;11.024;2024-02-15T00:47:05;8.13;;;5.00;;
84849;SDS011;75096;49.576;11.024;2024-02-15T00:48:07;7.07;;;3.50;;
84849;SDS011;75096;49.576;11.024;2024-02-15T00:49:09;8.77;;;4.55;;
84849;SDS011;75096;49.576;11.024;2024-02-15T00:50:11;6.88;;;4.55;;
84849;SDS011;75096;49.576;11.024;2024-02-15T00:51:14;7.38;;;4.53;;
84849;SDS011;75096;49.576;11.024;2024-02-15T00:52:16;7.25;;;4.43;;
84849;SDS011;75096;49.576;11.024;2024-02-15T00:53:20;7.22;;;4.20;;
84849;SDS011;75096;49.576;11.024;2024-02-15T00:54:22;9.18;;;4.00;;
84849;SDS011;75096;49.576;11.024;2024-02-15T00:55:24;8.70;;;4.57;;
84849;SDS011;75096;49.576;11.024;2024-02-15T00:56:26;9.13;;;4.93;;
84849;SDS011;75096;49.576;11.024;2024-02-15T00:58:30;7.60;;;4.40;;
84849;SDS011;75096;49.576;11.024;2024-02-15T00:59:32;9.15;;;4.78;;
84849;SDS011;75096;49.576;11.024;2024-02-15T01:00:37;9.30;;;4.55;;
84849;SDS011;75096;49.576;11.024;2024-02-15T01:01:39;8.20;;;5.03;;
84849;SDS011;75096;49.576;11.024;2024-02-15T01:02:42;9.25;;;4.65;;
84849;SDS011;75096;49.576;11.024;2024-02-15T01:03:44;9.07;;;3.97;;
84849;SDS011;75096;49.576;11.024;2024-02-15T01:04:46;7.13;;;4.40;;
84849;SDS011;75096;49.576;11.024;2024-02-15T01:05:47;7.80;;;4.63;;
84849;SDS011;75096;49.576;11.024;2024-02-15T01:06:49;8.00;;;4.60;;
84849;SDS011;75096;49.576;11.024;2024-02-15T01:07:51;9.90;;;4.55;;
84849;SDS011;75096;49.576;11.024;2024-02-15T01:08:53;8.02;;;4.38;;
84849;SDS011;75096;49.576;11.024;2024-02-15T01:09:55;9.40;;;4.10;;
84849;SDS011;75096;49.576;11.024;2024-02-15T01:10:56;7.07;;;3.78;;
84849;SDS011;75096;49.576;11.024;2024-02-15T01:11:58;7.65;;;4.70;;
84849;SDS011;75096;49.576;11.024;2024-02-15T01:13:00;8.10;;;4.57;;
84849;SDS011;75096;49.576;11.024;2024-02-15T01:14:02;8.25;;;4.63;;
84849;SDS011;75096;49.576;11.024;2024-02-15T01:15:03;7.57;;;4.50;;
84849;SDS011;75096;49.576;11.024;2024-02-15T01:16:06;7.55;;;4.43;;
84849;SDS011;75096;49.576;11.024;2024-02-15T01:17:08;8.07;;;4.65;;
84849;SDS011;75096;49.576;11.024;2024-02-15T01:18:10;8.75;;;4.60;;
84849;SDS011;75096;49.576;11.024;2024-02-15T01:19:12;8.57;;;4.85;;
84849;SDS011;75096;49.576;11.024;2024-02-15T01:20:14;10.40;;;4.18;;
84849;SDS011;75096;49.576;11.024;2024-02-15T01:21:16;9.52;;;4.40;;
84849;SDS011;75096;49.576;11.024;2024-02-15T01:22:18;6.43;;;4.32;;
84849;SDS011;75096;49.576;11.024;2024-02-15T01:23:20;6.88;;;4.15;;
84849;SDS011;75096;49.576;11.024;2024-02-15T01:24:23;7.35;;;4.57;;
84849;SDS011;75096;49.576;11.024;2024-02-15T01:25:26;7.28;;;4.55;;
84849;SDS011;75096;49.576;11.024;2024-02-15T01:27:31;6.43;;;3.92;;
84849;SDS011;75096;49.576;11.024;2024-02-15T01:28:32;7.68;;;4.32;;
84849;SDS011;75096;49.576;11.024;2024-02-15T01:29:35;8.90;;;4.93;;
84849;SDS011;75096;49.576;11.024;2024-02-15T01:30:37;6.32;;;4.53;;
84849;SDS011;75096;49.576;11.024;2024-02-15T01:31:39;6.90;;;4.55;;
84849;SDS011;75096;49.576;11.024;2024-02-15T01:32:41;7.30;;;4.47;;
84849;SDS011;75096;49.576;11.024;2024-02-15T01:33:44;8.20;;;5.07;;
84849;SDS011;75096;49.576;11.024;2024-02-15T01:34:47;7.75;;;4.25;;
84849;SDS011;75096;49.576;11.024;2024-02-15T01:35:49;7.28;;;4.88;;
84849;SDS011;75096;49.576;11.024;2024-02-15T01:36:51;6.38;;;3.67;;
84849;SDS011;75096;49.576;11.024;2024-02-15T01:37:52;8.80;;;5.13;;
84849;SDS011;75096;49.576;11.024;2024-02-15T01:38:54;9.35;;;5.05;;
84849;SDS011;75096;49.576;11.024;2024-02-15T01:39:56;7.53;;;5.22;;
84849;SDS011;75096;49.576;11.024;2024-02-15T01:40:57;7.68;;;5.05;;
84849;SDS011;75096;49.576;11.024;2024-02-15T01:41:59;9.02;;;4.65;;
84849;SDS011;75096;49.576;11.024;2024-02-15T01:43:01;8.35;;;4.30;;
84849;SDS011;75096;49.576;11.024;2024-02-15T01:44:03;7.80;;;4.60;;
84849;SDS011;75096;49.576;11.024;2024-02-15T01:45:05;7.13;;;4.35;;
84849;SDS011;75096;49.576;11.024;2024-02-15T01:46:08;7.10;;;4.20;;
84849;SDS011;75096;49.576;11.024;2024-02-15T01:47:11;7.75;;;4.82;;
84849;SDS011;75096;49.576;11.024;2024-02-15T01:48:13;7.07;;;4.43;;
84849;SDS011;75096;49.576;11.024;2024-02-15T01:49:16;6.10;;;4.07;;
84849;SDS011;75096;49.576;11.024;2024-02-15T01:50:18;9.10;;;5.50;;
84849;SDS011;75096;49.576;11.024;2024-02-15T01:51:21;8.82;;;5.28;;
84849;SDS011;75096;49.576;11.024;2024-02-15T01:52:22;7.82;;;4.80;;
84849;SDS011;75096;49.576;11.024;2024-02-15T01:53:25;6.65;;;4.35;;
84849;SDS011;75096;49.576;11.024;2024-02-15T01:54:26;8.15;;;4.97;;
84849;SDS011;75096;49.576;11.024;2024-02-15T01:55:28;8.32;;;4.82;;
84849;SDS011;75096;49.576;11.024;2024-02-15T01:56:30;7.50;;;4.90;;
84849;SDS011;75096;49.576;11.024;2024-02-15T01:57:33;8.63;;;4.70;;
84849;SDS011;75096;49.576;11.024;2024-02-15T01:58:41;9.23;;;4.45;;
84849;SDS011;75096;49.576;11.024;2024-02-15T01:59:44;7.07;;;4.40;;
84849;SDS011;75096;49.576;11.024;2024-02-15T02:00:46;7.20;;;4.28;;
84849;SDS011;75096;49.576;11.024;2024-02-15T02:01:49;8.30;;;4.28;;
84849;SDS011;75096;49.576;11.024;2024-02-15T02:02:51;8.13;;;4.25;;
84849;SDS011;75096;49.576;11.024;2024-02-15T02:03:54;7.05;;;4.22;;
84849;SDS011;75096;49.576;11.024;2024-02-15T02:04:57;7.70;;;4.68;;
84849;SDS011;75096;49.576;11.024;2024-02-15T02:06:00;6.03;;;4.18;;
84849;SDS011;75096;49.576;11.024;2024-02-15T02:07:02;7.78;;;4.57;;
84849;SDS011;75096;49.576;11.024;2024-02-15T02:08:04;6.43;;;4.03;;
84849;SDS011;75096;49.576;11.024;2024-02-15T02:09:11;7.20;;;4.65;;
84849;SDS011;75096;49.576;11.024;2024-02-15T02:10:16;8.35;;;4.53;;
84849;SDS011;75096;49.576;11.024;2024-02-15T02:11:18;8.75;;;4.82;;
84849;SDS011;75096;49.576;11.024;2024-02-15T02:12:19;6.80;;;4.55;;
84849;SDS011;75096;49.576;11.024;2024-02-15T02:13:21;6.43;;;4.28;;
84849;SDS011;75096;49.576;11.024;2024-02-15T02:14:23;7.32;;;4.60;;
84849;SDS011;75096;49.576;11.024;2024-02-15T02:15:25;7.45;;;4.60;;
84849;SDS011;75096;49.576;11.024;2024-02-15T02:16:27;8.07;;;4.47;;
84849;SDS011;75096;49.576;11.024;2024-02-15T02:18:32;6.68;;;4.07;;
84849;SDS011;75096;49.576;11.024;2024-02-15T02:19:34;7.18;;;4.13;;
84849;SDS011;75096;49.576;11.024;2024-02-15T02:20:38;7.20;;;3.22;;
84849;SDS011;75096;49.576;11.024;2024-02-15T02:21:40;10.38;;;4.70;;
84849;SDS011;75096;49.576;11.024;2024-02-15T02:22:43;9.40;;;5.53;;
84849;SDS011;75096;49.576;11.024;2024-02-15T02:23:48;8.88;;;4.93;;
84849;SDS011;75096;49.576;11.024;2024-02-15T02:24:56;8.43;;;4.85;;
84849;SDS011;75096;49.576;11.024;2024-02-15T02:26:00;9.38;;;4.70;;
84849;SDS011;75096;49.576;11.024;2024-02-15T02:27:04;6.50;;;4.57;;
84849;SDS011;75096;49.576;11.024;2024-02-15T02:28:06;8.25;;;4.93;;
84849;SDS011;75096;49.576;11.024;2024-02-15T02:29:08;9.02;;;5.03;;
84849;SDS011;75096;49.576;11.024;2024-02-15T02:30:15;8.85;;;4.85;;
84849;SDS011;75096;49.576;11.024;2024-02-15T02:31:20;8.07;;;4.50;;
84849;SDS011;75096;49.576;11.024;2024-02-15T02:32:26;8.10;;;4.65;;
84849;SDS011;75096;49.576;11.024;2024-02-15T02:33:28;10.38;;;4.80;;
84849;SDS011;75096;49.576;11.024;2024-02-15T02:34:30;7.68;;;4.65;;
84849;SDS011;75096;49.576;11.024;2024-02-15T02:35:32;9.73;;;5.38;;
84849;SDS011;75096;49.576;11.024;2024-02-15T02:36:34;7.85;;;3.83;;
84849;SDS011;75096;49.576;11.024;2024-02-15T02:38:40;8.88;;;4.90;;
84849;SDS011;75096;49.576;11.024;2024-02-15T02:39:42;6.55;;;4.55;;
84849;SDS011;75096;49.576;11.024;2024-02-15T02:40:44;7.70;;;4.70;;
84849;SDS011;75096;49.576;11.024;2024-02-15T02:41:46;7.47;;;3.90;;
84849;SDS011;75096;49.576;11.024;2024-02-15T02:42:48;7.78;;;4.43;;
84849;SDS011;75096;49.576;11.024;2024-02-15T02:43:51;7.85;;;4.72;;
84849;SDS011;75096;49.576;11.024;2024-02-15T02:44:53;8.13;;;4.60;;
84849;SDS011;75096;49.576;11.024;2024-02-15T02:45:55;8.38;;;4.97;;
84849;SDS011;75096;49.576;11.024;2024-02-15T02:46:56;6.78;;;4.47;;
84849;SDS011;75096;49.576;11.024;2024-02-15T02:47:58;8.20;;;4.45;;
84849;SDS011;75096;49.576;11.024;2024-02-15T02:49:00;7.95;;;4.40;;
84849;SDS011;75096;49.576;11.024;2024-02-15T02:50:02;8.90;;;4.80;;
84849;SDS011;75096;49.576;11.024;2024-02-15T02:51:04;8.07;;;3.97;;
84849;SDS011;75096;49.576;11.024;2024-02-15T02:52:07;7.97;;;4.60;;
84849;SDS011;75096;49.576;11.024;2024-02-15T02:53:09;8.60;;;4.25;;
84849;SDS011;75096;49.576;11.024;2024-02-15T02:55:13;7.85;;;4.20;;
84849;SDS011;75096;49.576;11.024;2024-02-15T02:56:16;6.45;;;4.38;;
84849;SDS011;75096;49.576;11.024;2024-02-15T02:57:20;8.05;;;4.13;;
84849;SDS011;75096;49.576;11.024;2024-02-15T02:58:22;5.95;;;4.05;;
84849;SDS011;75096;49.576;11.024;2024-02-15T02:59:24;9.18;;;3.83;;
84849;SDS011;75096;49.576;11.024;2024-02-15T03:00:26;7.10;;;4.50;;
84849;SDS011;75096;49.576;11.024;2024-02-15T03:01:29;6.97;;;4.32;;
84849;SDS011;75096;49.576;11.024;2024-02-15T03:02:31;6.95;;;4.30;;
84849;SDS011;75096;49.576;11.024;2024-02-15T03:03:32;7.95;;;4.25;;
84849;SDS011;75096;49.576;11.024;2024-02-15T03:04:34;7.13;;;4.38;;
84849;SDS011;75096;49.576;11.024;2024-02-15T03:05:36;7.45;;;4.00;;
84849;SDS011;75096;49.576;11.024;2024-02-15T03:06:37;10.18;;;4.32;;
84849;SDS011;75096;49.576;11.024;2024-02-15T03:07:40;9.18;;;4.15;;
84849;SDS011;75096;49.576;11.024;2024-02-15T03:08:46;6.38;;;4.13;;
84849;SDS011;75096;49.576;11.024;2024-02-15T03:10:50;7.35;;;3.90;;
84849;SDS011;75096;49.576;11.024;2024-02-15T03:11:52;6.88;;;4.15;;
84849;SDS011;75096;49.576;11.024;2024-02-15T03:12:54;7.75;;;4.38;;
84849;SDS011;75096;49.576;11.024;2024-02-15T03:13:55;6.88;;;4.15;;
84849;SDS011;75096;49.576;11.024;2024-02-15T03:14:59;7.40;;;4.22;;
84849;SDS011;75096;49.576;11.024;2024-02-15T03:16:03;7.88;;;4.55;;
84849;SDS011;75096;49.576;11.024;2024-02-15T03:17:07;7.55;;;4.13;;
84849;SDS011;75096;49.576;11.024;2024-02-15T03:18:09;7.40;;;4.15;;
84849;SDS011;75096;49.576;11.024;2024-02-15T03:19:11;7.40;;;4.25;;
84849;SDS011;75096;49.576;11.024;2024-02-15T03:20:13;6.72;;;3.60;;
84849;SDS011;75096;49.576;11.024;2024-02-15T03:21:26;8.25;;;4.22;;
84849;SDS011;75096;49.576;11.024;2024-02-15T03:22:28;8.02;;;4.05;;
84849;SDS011;75096;49.576;11.024;2024-02-15T03:23:30;7.80;;;4.50;;
84849;SDS011;75096;49.576;11.024;2024-02-15T03:24:34;6.30;;;4.00;;
84849;SDS011;75096;49.576;11.024;2024-02-15T03:25:36;6.22;;;3.90;;
84849;SDS011;75096;49.576;11.024;2024-02-15T03:26:38;7.45;;;3.35;;
84849;SDS011;75096;49.576;11.024;2024-02-15T03:28:43;7.60;;;3.30;;
84849;SDS011;75096;49.576;11.024;2024-02-15T03:29:45;7.95;;;4.40;;
84849;SDS011;75096;49.576;11.024;2024-02-15T03:30:48;6.63;;;4.00;;
84849;SDS011;75096;49.576;11.024;2024-02-15T03:31:51;6.35;;;4.13;;
84849;SDS011;75096;49.576;11.024;2024-02-15T03:32:55;8.82;;;4.10;;
84849;SDS011;75096;49.576;11.024;2024-02-15T03:34:00;8.32;;;3.58;;
84849;SDS011;75096;49.576;11.024;2024-02-15T03:35:02;6.53;;;4.10;;
84849;SDS011;75096;49.576;11.024;2024-02-15T03:36:04;7.30;;;4.40;;
84849;SDS011;75096;49.576;11.024;2024-02-15T03:37:06;8.80;;;4.07;;
84849;SDS011;75096;49.576;11.024;2024-02-15T03:38:08;7.60;;;4.68;;
84849;SDS011;75096;49.576;11.024;2024-02-15T03:39:10;7.72;;;4.07;;
84849;SDS011;75096;49.576;11.024;2024-02-15T03:40:12;6.65;;;4.07;;
84849;SDS011;75096;49.576;11.024;2024-02-15T03:41:13;8.48;;;4.32;;
84849;SDS011;75096;49.576;11.024;2024-02-15T03:42:15;7.85;;;3.60;;
84849;SDS011;75096;49.576;11.024;2024-02-15T03:43:17;6.43;;;3.85;;
84849;SDS011;75096;49.576;11.024;2024-02-15T03:44:19;6.45;;;3.50;;
84849;SDS011;75096;49.576;11.024;2024-02-15T03:45:21;6.30;;;3.65;;
84849;SDS011;75096;49.576;11.024;2024-02-15T03:46:27;6.47;;;3.70;;
84849;SDS011;75096;49.576;11.024;2024-02-15T03:47:29;6.97;;;2.97;;
84849;SDS011;75096;49.576;11.024;2024-02-15T03:48:31;5.03;;;3.33;;
84849;SDS011;75096;49.576;11.024;2024-02-15T03:49:33;6.28;;;3.60;;
84849;SDS011;75096;49.576;11.024;2024-02-15T03:50:35;7.35;;;3.13;;
84849;SDS011;75096;49.576;11.024;2024-02-15T03:51:37;5.60;;;3.60;;
84849;SDS011;75096;49.576;11.024;2024-02-15T03:52:39;6.60;;;3.67;;
84849;SDS011;75096;49.576;11.024;2024-02-15T03:53:42;6.63;;;3.60;;
84849;SDS011;75096;49.576;11.024;2024-02-15T03:54:44;7.13;;;2.90;;
84849;SDS011;75096;49.576;11.024;2024-02-15T03:55:45;6.75;;;3.72;;
84849;SDS011;75096;49.576;11.024;2024-02-15T03:56:50;6.25;;;3.78;;
84849;SDS011;75096;49.576;11.024;2024-02-15T03:57:56;7.50;;;4.05;;
84849;SDS011;75096;49.576;11.024;2024-02-15T04:00:00;5.43;;;3.33;;
84849;SDS011;75096;49.576;11.024;2024-02-15T04:01:03;6.15;;;3.30;;
84849;SDS011;75096;49.576;11.024;2024-02-15T04:02:11;6.07;;;3.05;;
84849;SDS011;75096;49.576;11.024;2024-02-15T04:03:16;7.43;;;3.75;;
84849;SDS011;75096;49.576;11.024;2024-02-15T04:04:17;5.65;;;3.72;;
84849;SDS011;75096;49.576;11.024;2024-02-15T04:05:19;6.00;;;3.33;;
84849;SDS011;75096;49.576;11.024;2024-02-15T04:06:23;6.95;;;3.53;;
84849;SDS011;75096;49.576;11.024;2024-02-15T04:07:26;8.38;;;3.42;;
84849;SDS011;75096;49.576;11.024;2024-02-15T04:08:28;7.32;;;3.50;;
84849;SDS011;75096;49.576;11.024;2024-02-15T04:09:30;6.75;;;3.92;;
84849;SDS011;75096;49.576;11.024;2024-02-15T04:10:31;6.13;;;3.35;;
84849;SDS011;75096;49.576;11.024;2024-02-15T04:11:33;5.88;;;3.65;;
84849;SDS011;75096;49.576;11.024;2024-02-15T04:12:35;7.60;;;3.58;;
84849;SDS011;75096;49.576;11.024;2024-02-15T04:13:36;7.13;;;3.45;;
84849;SDS011;75096;49.576;11.024;2024-02-15T04:14:45;5.28;;;2.83;;
84849;SDS011;75096;49.576;11.024;2024-02-15T04:15:46;6.00;;;3.47;;
84849;SDS011;75096;49.576;11.024;2024-02-15T04:16:50;6.22;;;3.25;;
84849;SDS011;75096;49.576;11.024;2024-02-15T04:17:52;6.07;;;3.25;;
84849;SDS011;75096;49.576;11.024;2024-02-15T04:18:57;5.50;;;2.58;;
84849;SDS011;75096;49.576;11.024;2024-02-15T04:19:59;6.50;;;4.40;;
84849;SDS011;75096;49.576;11.024;2024-02-15T04:21:01;6.65;;;3.45;;
84849;SDS011;75096;49.576;11.024;2024-02-15T04:22:03;7.18;;;3.92;;
84849;SDS011;75096;49.576;11.024;2024-02-15T04:23:08;6.20;;;3.72;;
84849;SDS011;75096;49.576;11.024;2024-02-15T04:24:10;5.97;;;3.80;;
84849;SDS011;75096;49.576;11.024;2024-02-15T04:25:11;7.15;;;3.90;;
84849;SDS011;75096;49.576;11.024;2024-02-15T04:26:18;5.97;;;2.67;;
84849;SDS011;75096;49.576;11.024;2024-02-15T04:27:21;7.43;;;3.65;;
84849;SDS011;75096;49.576;11.024;2024-02-15T04:28:22;6.07;;;3.60;;
84849;SDS011;75096;49.576;11.024;2024-02-15T04:29:24;7.82;;;3.70;;
84849;SDS011;75096;49.576;11.024;2024-02-15T04:30:25;6.95;;;3.65;;
84849;SDS011;75096;49.576;11.024;2024-02-15T04:31:27;7.32;;;3.65;;
84849;SDS011;75096;49.576;11.024;2024-02-15T04:32:29;7.45;;;3.60;;
84849;SDS011;75096;49.576;11.024;2024-02-15T04:33:34;5.22;;;3.28;;
84849;SDS011;75096;49.576;11.024;2024-02-15T04:34:37;6.55;;;3.30;;
84849;SDS011;75096;49.576;11.024;2024-02-15T04:35:39;7.35;;;3.40;;
84849;SDS011;75096;49.576;11.024;2024-02-15T04:36:46;6.57;;;3.28;;
84849;SDS011;75096;49.576;11.024;2024-02-15T04:37:54;5.28;;;3.10;;
84849;SDS011;75096;49.576;11.024;2024-02-15T04:38:56;5.63;;;3.28;;
84849;SDS011;75096;49.576;11.024;2024-02-15T04:39:58;5.40;;;2.90;;
84849;SDS011;75096;49.576;11.024;2024-02-15T04:41:08;5.22;;;2.75;;
84849;SDS011;75096;49.576;11.024;2024-02-15T04:42:11;5.90;;;3.30;;
84849;SDS011;75096;49.576;11.024;2024-02-15T04:43:13;6.38;;;3.35;;
84849;SDS011;75096;49.576;11.024;2024-02-15T04:44:17;6.47;;;2.42;;
84849;SDS011;75096;49.576;11.024;2024-02-15T04:45:21;5.28;;;3.10;;
84849;SDS011;75096;49.576;11.024;2024-02-15T04:46:24;4.78;;;2.50;;
84849;SDS011;75096;49.576;11.024;2024-02-15T04:47:25;6.13;;;3.28;;
84849;SDS011;75096;49.576;11.024;2024-02-15T04:48:27;6.63;;;3.50;;
84849;SDS011;75096;49.576;11.024;2024-02-15T04:49:32;6.93;;;3.72;;
84849;SDS011;75096;49.576;11.024;2024-02-15T04:50:34;6.40;;;4.32;;
84849;SDS011;75096;49.576;11.024;2024-02-15T04:51:38;7.97;;;4.80;;
84849;SDS011;75096;49.576;11.024;2024-02-15T04:53:47;7.53;;;5.05;;
84849;SDS011;75096;49.576;11.024;2024-02-15T04:54:49;6.07;;;3.70;;
84849;SDS011;75096;49.576;11.024;2024-02-15T04:55:51;6.88;;;4.70;;
84849;SDS011;75096;49.576;11.024;2024-02-15T04:56:52;9.02;;;4.53;;
84849;SDS011;75096;49.576;11.024;2024-02-15T04:59:58;9.88;;;4.13;;
84849;SDS011;75096;49.576;11.024;2024-02-15T05:01:01;7.68;;;3.75;;
84849;SDS011;75096;49.576;11.024;2024-02-15T05:03:05;7.78;;;3.53;;
84849;SDS011;75096;49.576;11.024;2024-02-15T05:04:09;6.40;;;3.55;;
84849;SDS011;75096;49.576;11.024;2024-02-15T05:05:11;5.55;;;3.70;;
84849;SDS011;75096;49.576;11.024;2024-02-15T05:06:14;5.90;;;4.18;;
84849;SDS011;75096;49.576;11.024;2024-02-15T05:07:16;5.78;;;3.95;;
84849;SDS011;75096;49.576;11.024;2024-02-15T05:09:21;8.65;;;5.07;;
84849;SDS011;75096;49.576;11.024;2024-02-15T05:10:24;6.35;;;4.38;;
84849;SDS011;75096;49.576;11.024;2024-02-15T05:11:25;6.63;;;4.28;;
84849;SDS011;75096;49.576;11.024;2024-02-15T05:12:27;7.18;;;3.92;;
84849;SDS011;75096;49.576;11.024;2024-02-15T05:13:28;7.93;;;4.30;;
84849;SDS011;75096;49.576;11.024;2024-02-15T05:14:30;7.22;;;4.32;;
84849;SDS011;75096;49.576;11.024;2024-02-15T05:15:32;7.57;;;4.32;;
84849;SDS011;75096;49.576;11.024;2024-02-15T05:16:34;7.28;;;3.60;;
84849;SDS011;75096;49.576;11.024;2024-02-15T05:17:38;6.50;;;3.80;;
84849;SDS011;75096;49.576;11.024;2024-02-15T05:18:42;7.03;;;3.95;;
84849;SDS011;75096;49.576;11.024;2024-02-15T05:19:44;5.93;;;3.95;;
84849;SDS011;75096;49.576;11.024;2024-02-15T05:20:46;6.80;;;4.05;;
84849;SDS011;75096;49.576;11.024;2024-02-15T05:21:48;6.25;;;4.00;;
84849;SDS011;75096;49.576;11.024;2024-02-15T05:22:49;6.78;;;3.65;;
84849;SDS011;75096;49.576;11.024;2024-02-15T05:23:52;7.20;;;4.55;;
84849;SDS011;75096;49.576;11.024;2024-02-15T05:24:57;6.55;;;4.43;;
84849;SDS011;75096;49.576;11.024;2024-02-15T05:25:59;7.20;;;3.40;;
84849;SDS011;75096;49.576;11.024;2024-02-15T05:27:01;7.13;;;4.25;;
84849;SDS011;75096;49.576;11.024;2024-02-15T05:28:02;8.02;;;4.40;;
84849;SDS011;75096;49.576;11.024;2024-02-15T05:29:07;6.80;;;3.67;;
84849;SDS011;75096;49.576;11.024;2024-02-15T05:30:08;6.65;;;4.00;;
84849;SDS011;75096;49.576;11.024;2024-02-15T05:31:17;6.75;;;4.10;;
84849;SDS011;75096;49.576;11.024;2024-02-15T05:32:19;7.28;;;4.10;;
84849;SDS011;75096;49.576;11.024;2024-02-15T05:33:21;7.00;;;3.88;;
84849;SDS011;75096;49.576;11.024;2024-02-15T05:34:23;8.30;;;4.40;;
84849;SDS011;75096;49.576;11.024;2024-02-15T05:35:27;5.60;;;3.20;;
84849;SDS011;75096;49.576;11.024;2024-02-15T05:36:29;5.65;;;4.15;;
84849;SDS011;75096;49.576;11.024;2024-02-15T05:37:31;6.38;;;4.20;;
84849;SDS011;75096;49.576;11.024;2024-02-15T05:38:36;6.55;;;4.15;;
84849;SDS011;75096;49.576;11.024;2024-02-15T05:39:38;6.22;;;3.65;;
84849;SDS011;75096;49.576;11.024;2024-02-15T05:40:41;6.43;;;4.07;;
84849;SDS011;75096;49.576;11.024;2024-02-15T05:41:43;6.50;;;3.30;;
84849;SDS011;75096;49.576;11.024;2024-02-15T05:42:45;8.30;;;3.78;;
84849;SDS011;75096;49.576;11.024;2024-02-15T05:43:47;6.22;;;3.50;;
84849;SDS011;75096;49.576;11.024;2024-02-15T05:44:55;6.50;;;3.60;;
84849;SDS011;75096;49.576;11.024;2024-02-15T05:45:57;7.65;;;3.47;;
84849;SDS011;75096;49.576;11.024;2024-02-15T05:47:01;6.72;;;3.75;;
84849;SDS011;75096;49.576;11.024;2024-02-15T05:48:03;5.38;;;3.25;;
84849;SDS011;75096;49.576;11.024;2024-02-15T05:49:08;6.60;;;3.65;;
84849;SDS011;75096;49.576;11.024;2024-02-15T05:50:16;6.32;;;3.50;;
84849;SDS011;75096;49.576;11.024;2024-02-15T05:51:22;5.47;;;3.17;;
84849;SDS011;75096;49.576;11.024;2024-02-15T05:52:24;6.03;;;3.33;;
84849;SDS011;75096;49.576;11.024;2024-02-15T05:53:26;5.10;;;3.22;;
84849;SDS011;75096;49.576;11.024;2024-02-15T05:54:27;5.70;;;3.25;;
84849;SDS011;75096;49.576;11.024;2024-02-15T05:55:29;6.82;;;3.20;;
84849;SDS011;75096;49.576;11.024;2024-02-15T05:56:35;5.28;;;3.10;;
84849;SDS011;75096;49.576;11.024;2024-02-15T05:57:37;6.93;;;3.20;;
84849;SDS011;75096;49.576;11.024;2024-02-15T05:58:38;5.18;;;2.90;;
84849;SDS011;75096;49.576;11.024;2024-02-15T05:59:41;6.15;;;3.05;;
84849;SDS011;75096;49.576;11.024;2024-02-15T06:01:51;4.05;;;2.90;;
84849;SDS011;75096;49.576;11.024;2024-02-15T06:02:53;5.88;;;3.08;;
84849;SDS011;75096;49.576;11.024;2024-02-15T06:03:55;6.25;;;3.22;;
84849;SDS011;75096;49.576;11.024;2024-02-15T06:04:57;7.10;;;3.25;;
84849;SDS011;75096;49.576;11.024;2024-02-15T06:06:04;6.03;;;2.70;;
84849;SDS011;75096;49.576;11.024;2024-02-15T06:07:10;8.10;;;3.30;;
84849;SDS011;75096;49.576;11.024;2024-02-15T06:08:11;5.32;;;3.03;;
84849;SDS011;75096;49.576;11.024;2024-02-15T06:09:13;7.55;;;3.28;;
84849;SDS011;75096;49.576;11.024;2024-02-15T06:10:15;5.13;;;3.03;;
84849;SDS011;75096;49.576;11.024;2024-02-15T06:11:20;8.80;;;3.30;;
84849;SDS011;75096;49.576;11.024;2024-02-15T06:12:22;5.72;;;2.63;;
84849;SDS011;75096;49.576;11.024;2024-02-15T06:13:24;9.65;;;3.25;;
84849;SDS011;75096;49.576;11.024;2024-02-15T06:14:26;6.13;;;3.20;;
84849;SDS011;75096;49.576;11.024;2024-02-15T06:15:28;6.28;;;3.20;;
84849;SDS011;75096;49.576;11.024;2024-02-15T06:16:30;6.25;;;3.00;;
84849;SDS011;75096;49.576;11.024;2024-02-15T06:17:32;5.43;;;3.33;;
84849;SDS011;75096;49.576;11.024;2024-02-15T06:18:33;6.80;;;3.10;;
84849;SDS011;75096;49.576;11.024;2024-02-15T06:19:35;5.18;;;2.75;;
84849;SDS011;75096;49.576;11.024;2024-02-15T06:20:37;4.82;;;2.95;;
84849;SDS011;75096;49.576;11.024;2024-02-15T06:21:41;5.03;;;2.88;;
84849;SDS011;75096;49.576;11.024;2024-02-15T06:22:43;4.72;;;2.42;;
84849;SDS011;75096;49.576;11.024;2024-02-15T06:23:45;5.05;;;2.67;;
84849;SDS011;75096;49.576;11.024;2024-02-15T06:24:46;6.85;;;3.10;;
84849;SDS011;75096;49.576;11.024;2024-02-15T06:25:50;7.32;;;3.40;;